createdAt,value
2019-05-06T00:00:21.248Z,4.72
2019-05-06T00:02:49.592Z,5.15
2019-05-06T00:05:18.029Z,5.92
2019-05-06T00:07:54.471Z,4.70
2019-05-06T00:10:24.537Z,4.40
2019-05-06T00:12:53.594Z,4.47
2019-05-06T00:15:23.724Z,4.12
2019-05-06T00:17:53.907Z,4.45
2019-05-06T00:20:24.110Z,3.20
2019-05-06T00:22:54.596Z,3.77
2019-05-06T00:25:40.104Z,3.60
2019-05-06T00:28:10.106Z,3.90
2019-05-06T00:30:40.236Z,3.77
2019-05-06T00:33:09.619Z,3.92
2019-05-06T00:35:37.915Z,3.83
2019-05-06T00:38:06.290Z,3.98
2019-05-06T00:40:39.281Z,4.20
2019-05-06T00:43:10.162Z,3.85
2019-05-06T00:45:38.681Z,3.83
2019-05-06T00:48:07.059Z,4.30
2019-05-06T00:50:35.406Z,3.92
2019-05-06T00:53:05.313Z,4.08
2019-05-06T00:55:33.882Z,3.85
2019-05-06T00:58:04.046Z,4.17
2019-05-06T01:00:33.809Z,4.60
2019-05-06T01:03:04.250Z,4.50
2019-05-06T01:05:33.753Z,4.78
2019-05-06T01:08:04.067Z,4.30
2019-05-06T01:10:34.429Z,4.70
2019-05-06T01:13:14.551Z,3.98
2019-05-06T01:15:44.037Z,3.40
2019-05-06T01:18:13.787Z,3.62
2019-05-06T01:20:44.547Z,4.08
2019-05-06T01:23:14.246Z,4.03
2019-05-06T01:25:43.808Z,3.65
2019-05-06T01:28:13.806Z,4.08
2019-05-06T01:30:44.233Z,3.70
2019-05-06T01:33:14.467Z,4.15
2019-05-06T01:35:44.226Z,3.95
2019-05-06T01:38:24.255Z,3.85
2019-05-06T01:40:54.734Z,3.80
2019-05-06T01:43:37.061Z,3.77
2019-05-06T01:46:05.326Z,3.85
2019-05-06T01:48:49.261Z,3.58
2019-05-06T01:51:18.630Z,4.03
2019-05-06T01:53:47.327Z,3.42
2019-05-06T01:56:15.953Z,3.47
2019-05-06T01:58:44.414Z,3.75
2019-05-06T02:01:14.737Z,4.10
2019-05-06T02:03:44.354Z,3.33
2019-05-06T02:06:14.084Z,4.10
2019-05-06T02:08:44.894Z,3.45
2019-05-06T02:11:14.669Z,4.12
2019-05-06T02:13:44.180Z,3.87
2019-05-06T02:16:14.638Z,4.10
2019-05-06T02:18:45.023Z,4.00
2019-05-06T02:21:23.845Z,3.60
2019-05-06T02:23:53.664Z,4.35
2019-05-06T02:26:23.925Z,3.70
2019-05-06T02:28:56.890Z,3.37
2019-05-06T02:31:46.024Z,4.60
2019-05-06T02:34:25.539Z,3.87
2019-05-06T02:36:55.611Z,4.15
2019-05-06T02:39:23.955Z,4.80
2019-05-06T02:41:54.980Z,3.67
2019-05-06T02:44:23.901Z,4.03
2019-05-06T02:46:57.283Z,4.12
2019-05-06T02:49:36.136Z,4.22
2019-05-06T02:52:04.546Z,4.08
2019-05-06T02:54:34.417Z,4.20
2019-05-06T02:57:04.215Z,4.37
2019-05-06T02:59:33.204Z,4.12
2019-05-06T03:02:03.417Z,4.45
2019-05-06T03:04:33.232Z,4.15
2019-05-06T03:07:03.779Z,3.80
2019-05-06T03:09:33.907Z,4.30
2019-05-06T03:12:03.590Z,4.00
2019-05-06T03:14:34.650Z,4.10
2019-05-06T03:17:03.591Z,4.35
2019-05-06T03:19:34.124Z,4.33
2019-05-06T03:22:24.054Z,3.67
2019-05-06T03:24:54.415Z,4.12
2019-05-06T03:27:23.500Z,4.50
2019-05-06T03:29:53.674Z,3.67
2019-05-06T03:32:25.120Z,5.33
2019-05-06T03:35:16.116Z,4.50
2019-05-06T03:37:23.874Z,5.08
2019-05-06T03:39:52.924Z,4.28
2019-05-06T03:42:23.159Z,4.70
2019-05-06T03:44:53.634Z,5.33
2019-05-06T03:47:29.671Z,4.95
2019-05-06T03:49:59.606Z,5.00
2019-05-06T03:52:29.152Z,4.37
2019-05-06T03:54:58.393Z,5.22
2019-05-06T03:57:27.600Z,4.70
2019-05-06T03:59:55.916Z,4.50
2019-05-06T04:02:24.470Z,4.72
2019-05-06T04:04:56.782Z,5.53
2019-05-06T04:07:23.895Z,5.87
2019-05-06T04:09:53.892Z,5.80
2019-05-06T04:12:23.316Z,5.35
2019-05-06T04:14:54.050Z,5.70
2019-05-06T04:17:32.913Z,5.62
2019-05-06T04:20:05.223Z,5.85
2019-05-06T04:22:43.815Z,10.00
2019-05-06T04:25:29.115Z,7.00
2019-05-06T04:27:58.789Z,5.53
2019-05-06T04:30:27.063Z,5.50
2019-05-06T04:32:56.115Z,5.28
2019-05-06T04:35:24.465Z,6.20
2019-05-06T04:37:53.851Z,6.25
2019-05-06T04:40:24.039Z,6.25
2019-05-06T04:42:52.946Z,5.83
2019-05-06T04:45:23.664Z,5.67
2019-05-06T04:47:53.696Z,6.25
2019-05-06T04:50:24.049Z,6.03
2019-05-06T04:53:05.304Z,5.65
2019-05-06T04:55:34.359Z,5.65
2019-05-06T04:58:06.134Z,5.92
2019-05-06T05:00:35.157Z,5.65
2019-05-06T05:03:04.191Z,5.37
2019-05-06T05:05:33.277Z,6.12
2019-05-06T05:08:02.461Z,5.87
2019-05-06T05:10:43.170Z,6.33
2019-05-06T05:13:32.776Z,5.22
2019-05-06T05:16:18.196Z,6.28
2019-05-06T05:18:48.113Z,5.10
2019-05-06T05:21:16.617Z,5.47
2019-05-06T05:23:44.973Z,5.30
2019-05-06T05:26:13.374Z,6.22
2019-05-06T05:28:42.940Z,6.83
2019-05-06T05:31:12.258Z,6.15
2019-05-06T05:34:05.228Z,6.40
2019-05-06T05:36:59.149Z,6.65
2019-05-06T05:39:51.868Z,5.17
2019-05-06T05:42:45.328Z,5.65
2019-05-06T05:45:36.701Z,5.20
2019-05-06T05:48:44.819Z,6.08
2019-05-06T05:51:36.179Z,5.70
2019-05-06T05:54:30.317Z,5.67
2019-05-06T05:57:16.646Z,5.80
2019-05-06T05:59:44.891Z,5.90
2019-05-06T06:02:13.303Z,5.60
2019-05-06T06:04:53.773Z,5.97
2019-05-06T06:07:13.490Z,5.28
2019-05-06T06:09:43.547Z,5.70
2019-05-06T06:12:12.089Z,5.78
2019-05-06T06:14:43.730Z,5.67
2019-05-06T06:17:20.276Z,5.95
2019-05-06T06:19:53.645Z,6.65
2019-05-06T06:22:24.079Z,6.55
2019-05-06T06:24:52.648Z,5.67
2019-05-06T06:27:22.386Z,6.78
2019-05-06T06:29:52.726Z,6.37
2019-05-06T06:32:23.197Z,6.08
2019-05-06T06:35:07.358Z,6.85
2019-05-06T06:37:46.090Z,6.37
2019-05-06T06:40:16.414Z,6.15
2019-05-06T06:42:46.527Z,7.12
2019-05-06T06:45:15.263Z,5.87
2019-05-06T06:47:44.105Z,5.87
2019-05-06T06:50:12.743Z,6.60
2019-05-06T06:52:42.183Z,5.60
2019-05-06T06:55:12.817Z,6.25
2019-05-06T06:58:02.720Z,6.22
2019-05-06T07:00:38.364Z,6.22
2019-05-06T07:03:14.554Z,6.25
2019-05-06T07:05:47.401Z,6.53
2019-05-06T07:08:15.806Z,7.33
2019-05-06T07:10:44.266Z,7.03
2019-05-06T07:13:13.475Z,7.17
2019-05-06T07:15:43.195Z,7.03
2019-05-06T07:18:13.499Z,6.25
2019-05-06T07:21:05.052Z,6.33
2019-05-06T07:23:36.701Z,5.17
2019-05-06T07:26:04.984Z,5.53
2019-05-06T07:28:33.439Z,5.72
2019-05-06T07:31:17.263Z,6.33
2019-05-06T07:33:33.447Z,5.10
2019-05-06T07:36:02.215Z,4.60
2019-05-06T07:38:32.839Z,5.17
2019-05-06T07:41:04.628Z,5.05
2019-05-06T07:43:36.729Z,5.35
2019-05-06T07:46:25.371Z,4.95
2019-05-06T07:48:53.957Z,4.78
2019-05-06T07:51:23.896Z,4.70
2019-05-06T07:53:52.520Z,4.75
2019-05-06T07:56:22.476Z,4.70
2019-05-06T07:58:52.946Z,4.60
2019-05-06T08:01:25.520Z,3.67
2019-05-06T08:03:53.286Z,4.45
2019-05-06T08:06:22.730Z,4.62
2019-05-06T08:08:53.690Z,4.03
2019-05-06T08:11:22.296Z,4.78
2019-05-06T08:13:52.768Z,4.67
2019-05-06T08:16:22.588Z,5.15
2019-05-06T08:18:52.372Z,4.67
2019-05-06T08:21:22.985Z,4.72
2019-05-06T08:23:53.154Z,4.53
2019-05-06T08:26:22.454Z,5.08
2019-05-06T08:28:52.580Z,4.55
2019-05-06T08:31:22.513Z,4.60
2019-05-06T08:33:52.444Z,4.65
2019-05-06T08:36:22.736Z,4.78
2019-05-06T08:38:58.973Z,4.12
2019-05-06T08:41:27.633Z,4.20
2019-05-06T08:43:56.196Z,4.05
2019-05-06T08:46:24.560Z,4.17
2019-05-06T08:48:52.930Z,4.10
2019-05-06T08:51:38.354Z,4.08
2019-05-06T08:54:24.979Z,4.45
2019-05-06T08:56:53.360Z,4.53
2019-05-06T08:59:23.827Z,4.78
2019-05-06T09:01:53.546Z,4.30
2019-05-06T09:04:22.835Z,4.10
2019-05-06T09:06:53.443Z,4.25
2019-05-06T09:09:22.411Z,3.83
2019-05-06T09:11:53.258Z,3.47
2019-05-06T09:14:23.225Z,4.17
2019-05-06T09:16:53.733Z,3.90
2019-05-06T09:19:23.092Z,3.72
2019-05-06T09:21:53.069Z,3.87
2019-05-06T09:24:23.035Z,3.30
2019-05-06T09:26:56.212Z,3.92
2019-05-06T09:29:35.600Z,3.70
2019-05-06T09:32:22.879Z,3.50
2019-05-06T09:34:53.115Z,3.08
2019-05-06T09:37:23.965Z,3.65
2019-05-06T09:39:53.441Z,3.27
2019-05-06T09:42:23.105Z,3.55
2019-05-06T09:44:54.126Z,3.08
2019-05-06T09:47:23.278Z,3.12
2019-05-06T09:49:53.045Z,3.50
2019-05-06T09:52:23.179Z,3.62
2019-05-06T09:54:56.226Z,3.30
2019-05-06T09:57:32.805Z,3.60
2019-05-06T10:00:04.409Z,3.10
2019-05-06T10:02:32.828Z,2.60
2019-05-06T10:05:03.587Z,2.60
2019-05-06T10:07:33.760Z,2.62
2019-05-06T10:10:01.660Z,1.72
2019-05-06T10:12:32.922Z,2.00
2019-05-06T10:15:03.152Z,2.08
2019-05-06T10:17:33.046Z,1.57
2019-05-06T10:20:02.851Z,1.60
2019-05-06T10:22:32.485Z,1.70
2019-05-06T10:25:03.775Z,1.57
2019-05-06T10:27:34.419Z,1.67
2019-05-06T10:30:07.426Z,1.42
2019-05-06T10:32:42.646Z,1.87
2019-05-06T10:35:13.087Z,1.87
2019-05-06T10:37:49.056Z,1.60
2019-05-06T10:40:22.453Z,1.98
2019-05-06T10:42:52.330Z,1.75
2019-05-06T10:45:21.778Z,1.70
2019-05-06T10:47:50.095Z,1.80
2019-05-06T10:50:18.517Z,2.30
2019-05-06T10:53:07.189Z,2.27
2019-05-06T10:55:37.183Z,2.08
2019-05-06T10:58:06.566Z,2.10
2019-05-06T11:00:35.073Z,2.58
2019-05-06T11:03:19.135Z,2.27
2019-05-06T11:05:47.504Z,2.02
2019-05-06T11:08:15.891Z,1.80
2019-05-06T11:10:45.269Z,1.60
2019-05-06T11:13:14.382Z,1.50
2019-05-06T11:15:43.391Z,1.50
2019-05-06T11:18:13.592Z,1.87
2019-05-06T11:20:43.705Z,1.40
2019-05-06T11:23:13.933Z,1.87
2019-05-06T11:25:43.165Z,1.35
2019-05-06T11:28:34.632Z,1.42
2019-05-06T11:31:02.486Z,1.82
2019-05-06T11:33:35.414Z,2.22
2019-05-06T11:36:12.200Z,1.70
2019-05-06T11:38:42.943Z,1.70
2019-05-06T11:41:13.170Z,1.87
2019-05-06T11:43:42.868Z,1.80
2019-05-06T11:46:12.298Z,1.72
2019-05-06T11:48:42.931Z,1.92
2019-05-06T11:51:12.888Z,1.50
2019-05-06T11:53:42.350Z,1.98
2019-05-06T11:56:30.032Z,2.25
2019-05-06T11:58:59.671Z,1.82
2019-05-06T12:01:29.659Z,1.82
2019-05-06T12:03:57.938Z,2.42
2019-05-06T12:06:26.372Z,2.20
2019-05-06T12:08:54.795Z,2.37
2019-05-06T12:11:23.817Z,2.60
2019-05-06T12:13:53.506Z,2.40
2019-05-06T12:16:26.014Z,2.33
2019-05-06T12:18:52.966Z,2.40
2019-05-06T12:21:23.257Z,2.20
2019-05-06T12:23:53.670Z,2.15
2019-05-06T12:26:21.496Z,2.75
2019-05-06T12:28:49.800Z,2.37
2019-05-06T12:31:18.153Z,2.00
2019-05-06T12:33:48.101Z,2.20
2019-05-06T12:36:18.130Z,1.90
2019-05-06T12:39:06.693Z,1.85
2019-05-06T12:41:36.334Z,1.75
2019-05-06T12:44:04.751Z,2.12
2019-05-06T12:46:52.907Z,2.08
2019-05-06T12:49:21.682Z,2.05
2019-05-06T12:51:50.086Z,1.92
2019-05-06T12:54:18.537Z,2.45
2019-05-06T12:56:47.958Z,2.30
2019-05-06T12:59:16.438Z,2.10
2019-05-06T13:01:45.778Z,2.17
2019-05-06T13:04:14.519Z,1.92
2019-05-06T13:06:46.079Z,2.42
2019-05-06T13:09:13.037Z,2.62
2019-05-06T13:11:43.100Z,3.47
2019-05-06T13:14:12.741Z,3.92
2019-05-06T13:16:42.541Z,3.42
2019-05-06T13:19:12.873Z,2.58
2019-05-06T13:21:42.290Z,2.58
2019-05-06T13:24:12.517Z,2.47
2019-05-06T13:26:43.004Z,5.08
2019-05-06T13:29:15.520Z,3.02
2019-05-06T13:31:43.986Z,2.80
2019-05-06T13:34:20.165Z,3.00
2019-05-06T13:36:49.328Z,2.45
2019-05-06T13:39:19.446Z,2.42
2019-05-06T13:41:48.881Z,2.70
2019-05-06T13:44:17.660Z,2.10
2019-05-06T13:46:47.993Z,2.67
2019-05-06T13:49:22.775Z,2.70
2019-05-06T13:51:55.815Z,2.55
2019-05-06T13:54:24.285Z,2.72
2019-05-06T13:56:52.655Z,2.72
2019-05-06T13:59:21.022Z,2.40
2019-05-06T14:01:52.694Z,2.42
2019-05-06T14:04:23.933Z,2.65
2019-05-06T14:06:52.802Z,2.47
2019-05-06T14:09:31.382Z,2.50
2019-05-06T14:11:52.492Z,2.50
2019-05-06T14:14:23.815Z,2.80
2019-05-06T14:16:53.355Z,2.27
2019-05-06T14:19:22.537Z,2.80
2019-05-06T14:21:52.289Z,2.55
2019-05-06T14:24:22.189Z,2.40
2019-05-06T14:26:58.682Z,2.67
2019-05-06T14:29:33.239Z,2.47
2019-05-06T14:32:01.858Z,3.08
2019-05-06T14:34:32.303Z,2.20
2019-05-06T14:37:00.208Z,2.60
2019-05-06T14:39:44.699Z,2.25
2019-05-06T14:42:02.291Z,2.27
2019-05-06T14:44:32.509Z,2.50
2019-05-06T14:47:14.202Z,2.10
2019-05-06T14:49:43.242Z,2.80
2019-05-06T14:52:13.196Z,1.98
2019-05-06T14:54:49.153Z,2.40
2019-05-06T14:57:18.155Z,2.37
2019-05-06T14:59:46.462Z,2.60
2019-05-06T15:02:16.346Z,2.42
2019-05-06T15:04:44.730Z,2.25
2019-05-06T15:07:13.133Z,2.02
2019-05-06T15:09:58.065Z,2.35
2019-05-06T15:12:12.958Z,2.20
2019-05-06T15:14:42.954Z,3.08
2019-05-06T15:17:11.346Z,3.08
2019-05-06T15:19:39.692Z,2.33
2019-05-06T15:22:08.110Z,2.65
2019-05-06T15:24:36.569Z,2.30
2019-05-06T15:27:05.041Z,2.67
2019-05-06T15:29:33.731Z,2.00
2019-05-06T15:32:06.834Z,2.52
2019-05-06T15:34:42.573Z,2.27
2019-05-06T15:37:28.880Z,2.33
2019-05-06T15:39:57.564Z,2.00
2019-05-06T15:42:27.927Z,2.05
2019-05-06T15:44:56.802Z,2.80
2019-05-06T15:47:25.957Z,2.10
2019-05-06T15:49:55.378Z,2.25
2019-05-06T15:52:25.711Z,2.42
2019-05-06T15:54:54.142Z,1.90
2019-05-06T15:57:23.058Z,1.95
2019-05-06T15:59:52.925Z,1.85
2019-05-06T16:02:24.141Z,2.27
2019-05-06T16:04:57.253Z,2.12
2019-05-06T16:07:26.625Z,2.55
2019-05-06T16:09:55.934Z,1.90
2019-05-06T16:12:24.456Z,2.25
2019-05-06T16:14:54.839Z,2.05
2019-05-06T16:17:23.922Z,2.02
2019-05-06T16:19:53.023Z,2.52
2019-05-06T16:22:22.556Z,2.33
2019-05-06T16:24:53.139Z,2.20
2019-05-06T16:27:22.961Z,2.60
2019-05-06T16:29:52.967Z,2.00
2019-05-06T16:32:26.470Z,2.22
2019-05-06T16:34:57.072Z,2.02
2019-05-06T16:37:25.478Z,2.27
2019-05-06T16:39:54.635Z,2.27
2019-05-06T16:42:23.163Z,2.45
2019-05-06T16:44:52.668Z,2.75
2019-05-06T16:47:37.429Z,2.20
2019-05-06T16:50:17.174Z,1.90
2019-05-06T16:52:45.971Z,1.98
2019-05-06T16:55:17.656Z,1.95
2019-05-06T16:57:47.753Z,2.27
2019-05-06T17:00:17.776Z,1.90
2019-05-06T17:03:05.205Z,2.40
2019-05-06T17:05:42.342Z,2.33
2019-05-06T17:08:12.339Z,1.98
2019-05-06T17:10:43.282Z,1.70
2019-05-06T17:13:12.615Z,1.67
2019-05-06T17:15:43.669Z,1.98
2019-05-06T17:18:12.473Z,1.60
2019-05-06T17:20:42.710Z,1.87
2019-05-06T17:23:13.127Z,2.27
2019-05-06T17:25:42.314Z,1.80
2019-05-06T17:28:12.523Z,1.72
2019-05-06T17:30:54.605Z,1.85
2019-05-06T17:33:36.724Z,1.72
2019-05-06T17:36:08.456Z,1.60
2019-05-06T17:38:47.722Z,2.37
2019-05-06T17:41:16.323Z,2.15
2019-05-06T17:43:44.670Z,1.92
2019-05-06T17:46:22.257Z,1.92
2019-05-06T17:48:55.269Z,1.82
2019-05-06T17:51:28.247Z,2.72
2019-05-06T17:53:58.361Z,2.67
2019-05-06T17:56:26.738Z,2.20
2019-05-06T17:58:55.213Z,1.90
2019-05-06T18:01:34.359Z,1.82
2019-05-06T18:04:02.733Z,2.02
2019-05-06T18:06:32.997Z,1.95
2019-05-06T18:09:02.725Z,2.00
2019-05-06T18:11:33.309Z,2.05
2019-05-06T18:14:03.843Z,2.42
2019-05-06T18:16:33.471Z,2.47
2019-05-06T18:19:03.114Z,2.22
2019-05-06T18:21:31.820Z,2.70
2019-05-06T18:24:00.210Z,2.70
2019-05-06T18:26:28.477Z,2.42
2019-05-06T18:28:58.449Z,2.30
2019-05-06T18:31:26.927Z,3.05
2019-05-06T18:33:56.490Z,2.70
2019-05-06T18:36:24.869Z,2.75
2019-05-06T18:38:53.249Z,2.85
2019-05-06T18:41:23.570Z,2.45
2019-05-06T18:43:53.550Z,2.42
2019-05-06T18:46:21.636Z,2.85
2019-05-06T18:48:52.245Z,2.90
2019-05-06T18:51:22.156Z,2.65
2019-05-06T18:53:52.161Z,2.70
2019-05-06T18:56:22.196Z,2.37
2019-05-06T18:58:50.080Z,3.05
2019-05-06T19:01:19.696Z,2.27
2019-05-06T19:03:58.946Z,2.58
2019-05-06T19:06:28.303Z,2.30
2019-05-06T19:09:02.551Z,3.20
2019-05-06T19:11:32.723Z,2.40
2019-05-06T19:14:02.095Z,2.85
2019-05-06T19:16:47.700Z,3.12
2019-05-06T19:19:03.778Z,2.92
2019-05-06T19:21:32.081Z,3.05
2019-05-06T19:24:02.833Z,3.33
2019-05-06T19:26:32.335Z,3.30
2019-05-06T19:29:04.387Z,3.25
2019-05-06T19:31:32.628Z,3.80
2019-05-06T19:34:03.166Z,3.90
2019-05-06T19:36:34.578Z,3.87
2019-05-06T19:39:04.577Z,4.28
2019-05-06T19:41:33.184Z,4.25
2019-05-06T19:44:02.222Z,4.90
2019-05-06T19:46:32.673Z,4.10
2019-05-06T19:49:01.974Z,4.62
2019-05-06T19:51:32.848Z,4.08
2019-05-06T19:54:02.198Z,4.05
2019-05-06T19:56:30.942Z,3.72
2019-05-06T19:58:59.229Z,4.28
2019-05-06T20:01:27.799Z,3.98
2019-05-06T20:03:56.373Z,3.90
2019-05-06T20:06:26.265Z,4.12
2019-05-06T20:08:56.296Z,3.90
2019-05-06T20:11:26.329Z,3.85
2019-05-06T20:13:54.709Z,4.15
2019-05-06T20:16:23.292Z,5.10
2019-05-06T20:18:52.623Z,5.40
2019-05-06T20:21:23.067Z,5.58
2019-05-06T20:23:52.621Z,5.67
2019-05-06T20:26:22.298Z,4.42
2019-05-06T20:28:52.602Z,4.80
2019-05-06T20:31:22.461Z,4.40
2019-05-06T20:33:52.694Z,3.85
2019-05-06T20:36:22.556Z,4.33
2019-05-06T20:38:50.970Z,4.47
2019-05-06T20:41:19.456Z,4.80
2019-05-06T20:43:47.946Z,3.77
2019-05-06T20:46:16.310Z,4.85
2019-05-06T20:48:44.691Z,4.78
2019-05-06T20:51:13.104Z,5.45
2019-05-06T20:53:43.148Z,5.62
2019-05-06T20:56:12.332Z,4.97
2019-05-06T20:58:41.993Z,5.42
2019-05-06T21:01:10.670Z,5.60
2019-05-06T21:03:39.140Z,5.53
2019-05-06T21:06:07.523Z,5.65
2019-05-06T21:08:35.893Z,5.30
2019-05-06T21:11:04.284Z,5.62
2019-05-06T21:13:35.428Z,4.92
2019-05-06T21:16:02.825Z,5.10
2019-05-06T21:18:32.490Z,4.92
2019-05-06T21:21:02.113Z,5.00
2019-05-06T21:23:32.084Z,5.65
2019-05-06T21:26:02.981Z,5.25
2019-05-06T21:28:30.585Z,5.35
2019-05-06T21:30:58.957Z,5.53
2019-05-06T21:33:27.402Z,5.58
2019-05-06T21:35:55.764Z,5.15
2019-05-06T21:38:24.287Z,5.37
2019-05-06T21:40:52.703Z,5.75
2019-05-06T21:43:22.648Z,5.10
2019-05-06T21:45:51.218Z,6.20
2019-05-06T21:48:22.077Z,5.83
2019-05-06T21:50:49.585Z,5.40
2019-05-06T21:53:18.113Z,5.53
2019-05-06T21:55:46.486Z,6.05
2019-05-06T21:58:14.837Z,5.50
2019-05-06T22:00:53.884Z,5.78
2019-05-06T22:03:22.937Z,5.40
2019-05-06T22:05:54.342Z,5.30
2019-05-06T22:08:23.606Z,5.00
2019-05-06T22:10:52.897Z,5.35
2019-05-06T22:13:21.870Z,5.50
2019-05-06T22:15:50.555Z,5.03
2019-05-06T22:18:18.978Z,5.33
2019-05-06T22:21:07.413Z,5.35
2019-05-06T22:23:52.279Z,5.15
2019-05-06T22:26:22.870Z,5.05
2019-05-06T22:28:52.467Z,5.12
2019-05-06T22:31:24.307Z,4.95
2019-05-06T22:33:52.558Z,5.37
2019-05-06T22:36:22.676Z,4.97
2019-05-06T22:38:53.053Z,5.30
2019-05-06T22:41:24.880Z,4.80
2019-05-06T22:43:53.059Z,4.40
2019-05-06T22:46:23.192Z,4.87
2019-05-06T22:48:54.370Z,5.80
2019-05-06T22:51:22.894Z,5.10
2019-05-06T22:53:53.292Z,4.87
2019-05-06T22:56:22.836Z,5.10
2019-05-06T22:58:52.849Z,4.42
2019-05-06T23:01:22.970Z,4.97
2019-05-06T23:03:52.624Z,4.85
2019-05-06T23:06:21.970Z,4.75
2019-05-06T23:08:52.575Z,4.83
2019-05-06T23:11:22.016Z,4.85
2019-05-06T23:13:50.337Z,4.30
2019-05-06T23:16:18.870Z,4.80
2019-05-06T23:18:47.133Z,5.62
2019-05-06T23:21:15.506Z,4.72
2019-05-06T23:23:43.896Z,5.17
2019-05-06T23:26:24.868Z,4.80
2019-05-06T23:28:53.195Z,5.33
2019-05-06T23:31:24.332Z,4.85
2019-05-06T23:33:53.396Z,5.53
2019-05-06T23:36:22.872Z,5.08
2019-05-06T23:39:12.830Z,5.83
2019-05-06T23:41:59.573Z,5.37
2019-05-06T23:44:46.442Z,5.03
2019-05-06T23:47:32.891Z,5.33
2019-05-06T23:50:19.803Z,5.25
2019-05-06T23:53:06.204Z,5.10
2019-05-06T23:55:52.656Z,4.87
2019-05-06T23:58:22.427Z,5.37
